createdAt,value
2023-02-08T00:00:26.859Z,27.15
2023-02-08T00:02:53.394Z,25.02
2023-02-08T00:05:19.965Z,25.23
2023-02-08T00:07:46.469Z,27.70
2023-02-08T00:10:13.037Z,27.48
2023-02-08T00:12:39.457Z,23.25
2023-02-08T00:15:06.259Z,24.85
2023-02-08T00:17:32.800Z,26.30
2023-02-08T00:19:59.271Z,24.55
2023-02-08T00:22:25.830Z,26.08
2023-02-08T00:24:52.343Z,26.67
2023-02-08T00:27:18.830Z,27.35
2023-02-08T00:29:45.318Z,26.95
2023-02-08T00:32:11.831Z,27.40
2023-02-08T00:34:38.990Z,26.25
2023-02-08T00:37:06.419Z,24.88
2023-02-08T00:39:33.293Z,24.02
2023-02-08T00:41:59.992Z,24.10
2023-02-08T00:44:26.538Z,24.70
2023-02-08T00:46:54.152Z,25.58
2023-02-08T00:49:21.032Z,25.27
2023-02-08T00:51:47.441Z,24.73
2023-02-08T00:54:14.980Z,25.73
2023-02-08T00:56:41.443Z,24.02
2023-02-08T00:59:07.889Z,25.38
2023-02-08T01:01:34.436Z,26.13
2023-02-08T01:04:01.004Z,24.20
2023-02-08T01:06:27.631Z,23.00
2023-02-08T01:08:54.133Z,23.85
2023-02-08T01:11:22.450Z,23.30
2023-02-08T01:13:49.404Z,22.67
2023-02-08T01:16:17.151Z,21.85
2023-02-08T01:18:44.519Z,21.95
2023-02-08T01:21:12.542Z,20.73
2023-02-08T01:23:39.237Z,20.02
2023-02-08T01:26:06.064Z,22.40
2023-02-08T01:28:32.601Z,21.48
2023-02-08T01:30:59.398Z,21.13
2023-02-08T01:33:25.987Z,21.83
2023-02-08T01:35:53.265Z,22.15
2023-02-08T01:38:20.569Z,22.40
2023-02-08T01:40:47.493Z,22.70
2023-02-08T01:43:22.851Z,23.30
2023-02-08T01:45:49.480Z,22.60
2023-02-08T01:48:20.149Z,22.90
2023-02-08T01:51:04.959Z,22.20
2023-02-08T01:53:33.550Z,23.27
2023-02-08T01:56:02.051Z,22.02
2023-02-08T01:58:29.550Z,23.70
2023-02-08T02:00:56.237Z,22.23
2023-02-08T02:03:23.550Z,21.83
2023-02-08T02:05:52.050Z,23.23
2023-02-08T02:08:18.658Z,22.88
2023-02-08T02:10:47.619Z,21.83
2023-02-08T02:13:15.603Z,23.17
2023-02-08T02:15:42.456Z,21.15
2023-02-08T02:18:09.064Z,21.95
2023-02-08T02:20:50.118Z,23.00
2023-02-08T02:23:35.389Z,17.15
2023-02-08T02:26:17.021Z,23.50
2023-02-08T02:28:49.600Z,22.73
2023-02-08T02:31:36.830Z,22.05
2023-02-08T02:34:20.174Z,22.80
2023-02-08T02:37:01.962Z,22.20
2023-02-08T02:42:17.295Z,21.63
2023-02-08T02:44:55.896Z,20.77
2023-02-08T02:47:33.227Z,21.77
2023-02-08T02:50:18.192Z,22.70
2023-02-08T02:52:51.218Z,21.30
2023-02-08T02:55:21.008Z,21.70
2023-02-08T02:57:48.638Z,22.70
2023-02-08T03:00:20.208Z,20.77
2023-02-08T03:02:46.697Z,22.65
2023-02-08T03:05:13.568Z,23.60
2023-02-08T03:07:56.475Z,23.42
2023-02-08T03:10:38.387Z,21.75
2023-02-08T03:13:10.992Z,21.63
2023-02-08T03:15:49.899Z,23.83
2023-02-08T03:18:35.048Z,21.98
2023-02-08T03:21:06.186Z,21.60
2023-02-08T03:23:38.849Z,22.40
2023-02-08T03:26:05.268Z,22.30
2023-02-08T03:28:39.207Z,22.13
2023-02-08T03:31:10.885Z,22.05
2023-02-08T03:36:11.605Z,21.10
2023-02-08T03:38:40.557Z,21.27
2023-02-08T03:41:10.238Z,22.10
2023-02-08T03:43:39.000Z,23.38
2023-02-08T03:46:11.936Z,24.88
2023-02-08T03:48:40.017Z,20.88
2023-02-08T03:51:07.161Z,20.88
2023-02-08T03:53:38.378Z,21.33
2023-02-08T03:56:08.614Z,22.70
2023-02-08T03:58:39.812Z,21.83
2023-02-08T04:01:18.042Z,23.27
2023-02-08T04:03:44.791Z,23.02
2023-02-08T04:06:11.375Z,25.23
2023-02-08T04:08:37.849Z,24.80
2023-02-08T04:11:04.372Z,27.10
2023-02-08T04:13:30.869Z,23.33
2023-02-08T04:15:57.407Z,22.98
2023-02-08T04:18:23.823Z,24.92
2023-02-08T04:20:50.379Z,23.15
2023-02-08T04:23:16.828Z,21.83
2023-02-08T04:25:43.664Z,21.80
2023-02-08T04:28:10.334Z,21.88
2023-02-08T04:30:36.905Z,23.38
2023-02-08T04:33:03.936Z,21.48
2023-02-08T04:35:30.469Z,21.80
2023-02-08T04:37:56.969Z,21.42
2023-02-08T04:40:23.453Z,21.45
2023-02-08T04:42:49.892Z,21.00
2023-02-08T04:45:16.410Z,23.30
2023-02-08T04:47:42.865Z,22.13
2023-02-08T04:50:09.374Z,22.02
2023-02-08T04:52:35.856Z,21.55
2023-02-08T04:55:02.352Z,21.50
2023-02-08T04:57:28.850Z,21.17
2023-02-08T04:59:55.277Z,21.75
2023-02-08T05:02:21.738Z,22.77
2023-02-08T05:04:48.342Z,25.42
2023-02-08T05:07:14.847Z,22.15
2023-02-08T05:09:41.356Z,22.27
2023-02-08T05:12:07.811Z,24.85
2023-02-08T05:14:34.337Z,23.92
2023-02-08T05:17:00.780Z,24.10
2023-02-08T05:19:27.256Z,20.60
2023-02-08T05:21:53.878Z,22.13
2023-02-08T05:24:20.371Z,22.70
2023-02-08T05:26:46.822Z,22.27
2023-02-08T05:29:13.388Z,22.98
2023-02-08T05:31:39.961Z,23.60
2023-02-08T05:34:06.511Z,22.30
2023-02-08T05:36:32.920Z,27.38
2023-02-08T05:38:59.413Z,24.48
2023-02-08T05:41:25.868Z,22.90
2023-02-08T05:43:52.379Z,24.52
2023-02-08T05:46:18.864Z,24.40
2023-02-08T05:48:45.335Z,23.17
2023-02-08T05:51:11.823Z,22.48
2023-02-08T05:53:38.617Z,25.20
2023-02-08T05:56:05.315Z,22.75
2023-02-08T05:58:31.793Z,24.17
2023-02-08T06:00:58.289Z,22.48
2023-02-08T06:03:25.151Z,24.58
2023-02-08T06:05:51.586Z,23.00
2023-02-08T06:08:18.043Z,23.70
2023-02-08T06:10:45.918Z,24.58
2023-02-08T06:13:12.401Z,23.40
2023-02-08T06:15:38.845Z,25.83
2023-02-08T06:18:05.563Z,28.48
2023-02-08T06:20:31.984Z,28.88
2023-02-08T06:22:58.442Z,30.40
2023-02-08T06:25:24.980Z,28.42
2023-02-08T06:27:51.556Z,31.15
2023-02-08T06:30:18.433Z,29.65
2023-02-08T06:32:44.876Z,27.38
2023-02-08T06:35:11.441Z,29.27
2023-02-08T06:37:38.037Z,28.77
2023-02-08T06:40:05.261Z,27.05
2023-02-08T06:42:31.822Z,27.63
2023-02-08T06:44:58.990Z,26.15
2023-02-08T06:47:26.322Z,26.58
2023-02-08T06:49:52.951Z,26.05
2023-02-08T06:52:19.805Z,26.40
2023-02-08T06:54:46.353Z,24.42
2023-02-08T06:57:13.060Z,23.95
2023-02-08T06:59:39.925Z,25.45
2023-02-08T07:02:07.055Z,25.55
2023-02-08T07:04:33.550Z,70.20
2023-02-08T07:07:00.426Z,37.15
2023-02-08T07:09:26.896Z,28.98
2023-02-08T07:11:53.321Z,28.65
2023-02-08T07:14:19.795Z,25.77
2023-02-08T07:16:46.326Z,25.88
2023-02-08T07:19:12.966Z,23.65
2023-02-08T07:21:39.419Z,25.27
2023-02-08T07:24:05.878Z,26.17
2023-02-08T07:26:32.496Z,24.00
2023-02-08T07:28:59.019Z,25.50
2023-02-08T07:31:25.572Z,25.90
2023-02-08T07:33:52.057Z,26.70
2023-02-08T07:36:18.534Z,28.02
2023-02-08T07:38:44.969Z,27.98
2023-02-08T07:41:13.210Z,26.98
2023-02-08T07:43:40.339Z,27.05
2023-02-08T07:46:17.593Z,28.95
2023-02-08T07:48:44.146Z,26.30
2023-02-08T07:51:11.129Z,28.70
2023-02-08T07:53:37.992Z,27.40
2023-02-08T07:56:04.933Z,26.40
2023-02-08T07:58:31.450Z,27.13
2023-02-08T08:00:58.710Z,29.27
2023-02-08T08:03:25.244Z,28.35
2023-02-08T08:05:54.134Z,31.23
2023-02-08T08:08:21.309Z,30.85
2023-02-08T08:10:47.817Z,32.75
2023-02-08T08:13:14.279Z,34.60
2023-02-08T08:15:41.247Z,34.75
2023-02-08T08:18:08.287Z,33.47
2023-02-08T08:20:34.860Z,34.45
2023-02-08T08:23:01.853Z,34.70
2023-02-08T08:25:28.352Z,33.65
2023-02-08T08:27:55.090Z,40.22
2023-02-08T08:30:21.985Z,42.95
2023-02-08T08:32:48.453Z,51.65
2023-02-08T08:35:14.965Z,148.30
2023-02-08T08:37:41.380Z,181.38
2023-02-08T08:40:08.192Z,280.70
2023-02-08T08:42:35.141Z,231.68
2023-02-08T08:45:01.691Z,79.95
2023-02-08T08:47:28.527Z,74.07
2023-02-08T08:49:54.974Z,48.50
2023-02-08T08:52:21.628Z,44.08
2023-02-08T08:54:48.110Z,43.80
2023-02-08T08:57:14.581Z,43.00
2023-02-08T08:59:41.128Z,41.50
2023-02-08T09:02:07.768Z,67.28
2023-02-08T09:04:34.362Z,94.75
2023-02-08T09:07:00.870Z,79.15
2023-02-08T09:09:27.366Z,213.00
2023-02-08T09:11:53.869Z,118.55
2023-02-08T09:14:20.463Z,54.42
2023-02-08T09:16:48.204Z,58.40
2023-02-08T09:19:16.235Z,46.03
2023-02-08T09:21:43.208Z,41.10
2023-02-08T09:24:10.132Z,40.85
2023-02-08T09:26:37.233Z,41.85
2023-02-08T09:29:03.877Z,41.28
2023-02-08T09:31:31.146Z,39.92
2023-02-08T09:33:59.643Z,37.95
2023-02-08T09:36:27.360Z,36.42
2023-02-08T09:39:00.462Z,34.10
2023-02-08T09:41:26.899Z,37.97
2023-02-08T09:44:05.633Z,39.13
2023-02-08T09:46:33.666Z,37.88
2023-02-08T09:49:02.570Z,37.30
2023-02-08T09:51:29.007Z,41.13
2023-02-08T09:54:15.649Z,38.70
2023-02-08T09:56:43.240Z,39.15
2023-02-08T09:59:16.188Z,50.47
2023-02-08T10:01:43.031Z,64.38
2023-02-08T10:04:14.370Z,244.93
2023-02-08T10:06:41.231Z,81.80
2023-02-08T10:09:13.964Z,42.30
2023-02-08T10:11:59.044Z,31.48
2023-02-08T10:14:31.440Z,74.22
2023-02-08T10:17:16.770Z,61.40
2023-02-08T10:19:46.077Z,48.58
2023-02-08T10:22:12.483Z,36.35
2023-02-08T10:24:48.058Z,29.48
2023-02-08T10:27:22.671Z,28.73
2023-02-08T10:29:51.871Z,27.75
2023-02-08T10:32:23.604Z,27.80
2023-02-08T10:53:03.585Z,30.50
2023-02-08T10:55:30.732Z,30.45
2023-02-08T10:57:58.916Z,29.65
2023-02-08T11:00:32.529Z,31.23
2023-02-08T11:18:41.511Z,30.38
2023-02-08T11:21:10.666Z,26.90
2023-02-08T11:23:41.552Z,25.02
2023-02-08T11:26:18.926Z,27.10
2023-02-08T11:28:58.362Z,25.63
2023-02-08T11:52:18.825Z,28.63
2023-02-08T11:54:45.356Z,28.00
2023-02-08T12:10:50.917Z,23.40
2023-02-08T12:39:18.405Z,24.35
2023-02-08T12:41:48.818Z,25.38
2023-02-08T12:44:30.534Z,22.40
2023-02-08T12:47:15.566Z,22.35
2023-02-08T12:49:54.373Z,22.45
2023-02-08T12:52:20.853Z,24.73
2023-02-08T12:54:53.148Z,21.73
2023-02-08T12:57:21.619Z,24.67
2023-02-08T12:59:59.349Z,26.17
2023-02-08T13:02:29.765Z,25.35
2023-02-08T13:05:00.405Z,26.20
2023-02-08T13:07:29.516Z,25.13
2023-02-08T13:10:14.733Z,23.77
2023-02-08T13:12:53.439Z,25.13
2023-02-08T13:15:43.142Z,25.40
2023-02-08T13:18:27.525Z,28.00
2023-02-08T13:20:56.946Z,25.55
2023-02-08T13:23:26.245Z,23.40
2023-02-08T13:26:02.256Z,25.98
2023-02-08T13:28:28.849Z,26.42
2023-02-08T13:31:04.066Z,25.50
2023-02-08T13:33:36.258Z,24.77
2023-02-08T13:36:03.185Z,26.67
2023-02-08T13:38:29.717Z,24.35
2023-02-08T13:41:22.522Z,22.60
2023-02-08T14:02:19.018Z,22.55
2023-02-08T14:17:58.624Z,22.35
2023-02-08T14:20:28.992Z,24.35
2023-02-08T14:22:57.149Z,27.75
2023-02-08T14:25:26.236Z,22.73
2023-02-08T14:27:55.508Z,20.88
2023-02-08T14:30:25.091Z,22.48
2023-02-08T14:32:53.656Z,20.05
2023-02-08T14:35:24.960Z,21.23
2023-02-08T14:38:11.351Z,19.25
2023-02-08T14:41:07.432Z,20.08
2023-02-08T14:43:35.337Z,22.98
2023-02-08T14:46:22.018Z,21.67
2023-02-08T14:48:49.127Z,20.40
2023-02-08T14:51:17.215Z,20.08
2023-02-08T14:53:44.585Z,19.90
2023-02-08T14:56:20.300Z,22.33
2023-02-08T14:58:50.070Z,22.77
2023-02-08T15:01:19.573Z,22.40
2023-02-08T15:03:47.546Z,22.35
2023-02-08T15:06:32.554Z,23.05
2023-02-08T15:08:59.167Z,22.52
2023-02-08T15:11:27.888Z,24.38
2023-02-08T15:13:55.233Z,26.80
2023-02-08T15:16:22.059Z,25.92
2023-02-08T15:18:50.954Z,26.75
2023-02-08T15:21:19.024Z,21.23
2023-02-08T15:24:02.999Z,21.00
2023-02-08T15:26:31.043Z,29.40
2023-02-08T15:28:59.633Z,24.48
2023-02-08T15:31:33.867Z,38.83
2023-02-08T15:34:01.179Z,25.75
2023-02-08T15:36:32.248Z,25.15
2023-02-08T15:39:01.214Z,25.47
2023-02-08T15:41:32.242Z,23.33
2023-02-08T15:44:07.313Z,21.60
2023-02-08T15:46:34.697Z,19.67
2023-02-08T15:49:01.186Z,18.40
2023-02-08T15:51:28.738Z,21.52
2023-02-08T15:53:55.953Z,19.35
2023-02-08T15:56:37.934Z,17.98
2023-02-08T15:59:08.052Z,19.13
2023-02-08T16:01:34.761Z,19.27
2023-02-08T16:04:06.053Z,19.42
2023-02-08T16:06:38.844Z,21.25
2023-02-08T16:09:05.840Z,27.38
2023-02-08T16:11:33.503Z,31.17
2023-02-08T16:14:00.966Z,25.08
2023-02-08T16:16:38.519Z,23.48
2023-02-08T16:19:06.333Z,23.75
2023-02-08T16:21:42.299Z,25.70
2023-02-08T16:24:11.708Z,24.00
2023-02-08T16:26:44.394Z,24.17
2023-02-08T16:29:21.333Z,22.77
2023-02-08T16:31:48.896Z,22.27
2023-02-08T16:34:17.261Z,21.50
2023-02-08T16:36:45.878Z,21.10
2023-02-08T16:39:12.376Z,22.35
2023-02-08T16:42:09.632Z,24.10
2023-02-08T16:44:56.708Z,23.50
2023-02-08T16:47:27.989Z,25.65
2023-02-08T16:49:54.501Z,27.10
2023-02-08T16:52:21.003Z,27.35
2023-02-08T16:54:47.553Z,29.65
2023-02-08T16:57:14.118Z,28.00
2023-02-08T16:59:40.687Z,27.77
2023-02-08T17:02:13.161Z,28.70
2023-02-08T17:04:39.752Z,28.65
2023-02-08T17:07:06.246Z,26.85
2023-02-08T17:09:32.767Z,25.65
2023-02-08T17:11:59.224Z,27.65
2023-02-08T17:14:25.692Z,28.85
2023-02-08T17:16:52.217Z,28.10
2023-02-08T17:19:18.737Z,29.90
2023-02-08T17:21:45.228Z,28.10
2023-02-08T17:24:12.118Z,30.23
2023-02-08T17:26:42.697Z,30.00
2023-02-08T17:29:10.820Z,31.90
2023-02-08T17:31:37.305Z,35.60
2023-02-08T17:34:06.529Z,58.85
2023-02-08T17:36:34.596Z,345.95
2023-02-08T17:39:01.385Z,131.20
2023-02-08T17:41:27.906Z,47.67
2023-02-08T17:43:55.852Z,35.80
2023-02-08T17:46:23.632Z,297.13
2023-02-08T17:48:50.345Z,197.07
2023-02-08T17:51:18.281Z,137.50
2023-02-08T17:53:44.974Z,68.68
2023-02-08T17:56:16.218Z,51.63
2023-02-08T17:58:42.879Z,114.10
2023-02-08T18:01:10.369Z,69.72
2023-02-08T18:03:36.869Z,63.42
2023-02-08T18:06:06.082Z,46.97
2023-02-08T18:08:32.760Z,38.25
2023-02-08T18:11:03.113Z,38.75
2023-02-08T18:13:29.607Z,32.03
2023-02-08T18:15:56.093Z,85.32
2023-02-08T18:18:22.619Z,134.77
2023-02-08T18:20:49.117Z,315.27
2023-02-08T18:23:15.657Z,185.40
2023-02-08T18:25:42.759Z,89.60
2023-02-08T18:28:14.697Z,68.45
2023-02-08T18:30:42.503Z,47.10
2023-02-08T18:33:10.811Z,32.38
2023-02-08T18:35:37.874Z,31.42
2023-02-08T18:38:04.409Z,31.73
2023-02-08T18:40:32.262Z,31.80
2023-02-08T18:42:58.966Z,33.58
2023-02-08T18:45:25.422Z,37.58
2023-02-08T18:47:51.995Z,35.13
2023-02-08T18:50:18.651Z,37.65
2023-02-08T18:52:45.178Z,40.30
2023-02-08T18:55:11.673Z,37.63
2023-02-08T18:57:39.987Z,36.55
2023-02-08T19:00:06.879Z,37.08
2023-02-08T19:02:33.950Z,39.15
2023-02-08T19:05:00.387Z,37.15
2023-02-08T19:07:26.877Z,36.35
2023-02-08T19:09:54.123Z,35.78
2023-02-08T19:12:21.482Z,37.20
2023-02-08T19:14:51.116Z,35.88
2023-02-08T19:17:17.857Z,34.63
2023-02-08T19:19:44.280Z,37.47
2023-02-08T19:22:11.006Z,46.42
2023-02-08T19:24:37.705Z,48.15
2023-02-08T19:27:04.459Z,46.90
2023-02-08T19:29:32.724Z,33.65
2023-02-08T19:31:59.336Z,103.55
2023-02-08T19:34:25.849Z,274.08
2023-02-08T19:36:54.222Z,163.70
2023-02-08T19:39:22.418Z,62.40
2023-02-08T19:41:49.485Z,66.68
2023-02-08T19:44:17.569Z,67.15
2023-02-08T19:46:47.313Z,50.22
2023-02-08T19:49:13.978Z,42.20
2023-02-08T19:51:40.460Z,52.38
2023-02-08T19:54:10.099Z,40.08
2023-02-08T19:56:36.649Z,46.83
2023-02-08T19:59:04.346Z,45.63
2023-02-08T20:01:33.098Z,54.55
2023-02-08T20:03:59.638Z,52.50
2023-02-08T20:06:27.517Z,52.10
2023-02-08T20:08:54.025Z,60.17
2023-02-08T20:11:24.939Z,51.80
2023-02-08T20:13:52.158Z,35.30
2023-02-08T20:16:19.540Z,45.63
2023-02-08T20:18:46.237Z,44.85
2023-02-08T20:21:12.798Z,42.08
2023-02-08T20:23:39.701Z,41.90
2023-02-08T20:26:07.726Z,37.53
2023-02-08T20:28:34.852Z,35.97
2023-02-08T20:31:05.653Z,35.13
2023-02-08T20:33:32.179Z,35.10
2023-02-08T20:35:58.648Z,43.88
2023-02-08T20:38:25.075Z,42.45
2023-02-08T20:41:00.614Z,31.98
2023-02-08T20:43:27.051Z,29.27
2023-02-08T20:45:53.619Z,29.02
2023-02-08T20:48:20.118Z,29.45
2023-02-08T20:50:46.607Z,29.48
2023-02-08T20:53:14.025Z,29.90
2023-02-08T20:55:44.186Z,28.55
2023-02-08T20:58:10.928Z,29.80
2023-02-08T21:00:42.348Z,30.80
2023-02-08T21:03:27.838Z,29.17
2023-02-08T21:05:54.347Z,32.78
2023-02-08T21:08:20.926Z,37.25
2023-02-08T21:10:47.456Z,42.50
2023-02-08T21:13:13.974Z,37.65
2023-02-08T21:15:45.637Z,33.60
2023-02-08T21:20:39.314Z,28.30
2023-02-08T21:23:06.947Z,26.75
2023-02-08T21:25:33.626Z,26.83
2023-02-08T21:28:00.348Z,31.92
2023-02-08T21:30:27.031Z,31.35
2023-02-08T21:32:53.574Z,32.70
2023-02-08T21:35:20.060Z,32.55
2023-02-08T21:37:46.478Z,30.48
2023-02-08T21:40:12.973Z,24.02
2023-02-08T21:42:39.508Z,24.00
2023-02-08T21:45:06.136Z,21.42
2023-02-08T21:47:32.623Z,18.95
2023-02-08T21:50:17.800Z,20.08
2023-02-08T21:53:02.873Z,18.25
2023-02-08T21:55:29.323Z,18.70
2023-02-08T21:57:55.861Z,17.38
2023-02-08T22:00:22.345Z,17.63
2023-02-08T22:02:48.834Z,18.05
2023-02-08T22:05:33.545Z,18.30
2023-02-08T22:08:00.122Z,19.80
2023-02-08T22:10:28.107Z,20.85
2023-02-08T22:12:55.233Z,21.63
2023-02-08T22:15:23.231Z,20.08
2023-02-08T22:17:57.316Z,23.00
2023-02-08T22:20:24.091Z,26.35
2023-02-08T22:22:54.203Z,29.92
2023-02-08T22:25:22.071Z,31.40
2023-02-08T22:27:48.590Z,31.65
2023-02-08T22:30:18.017Z,28.98
2023-02-08T22:32:45.765Z,29.10
2023-02-08T22:35:12.606Z,27.48
2023-02-08T22:37:39.035Z,29.60
2023-02-08T22:40:06.095Z,24.92
2023-02-08T22:42:32.865Z,24.25
2023-02-08T22:44:59.484Z,21.55
2023-02-08T22:47:25.983Z,19.63
2023-02-08T22:49:52.566Z,22.00
2023-02-08T22:52:19.056Z,22.77
2023-02-08T22:54:46.284Z,18.92
2023-02-08T22:57:13.068Z,19.60
2023-02-08T22:59:39.840Z,19.98
2023-02-08T23:02:06.315Z,19.90
2023-02-08T23:04:32.782Z,21.33
2023-02-08T23:06:59.897Z,19.38
2023-02-08T23:09:26.434Z,17.35
2023-02-08T23:11:52.953Z,18.73
2023-02-08T23:14:20.609Z,17.73
2023-02-08T23:16:48.317Z,18.63
2023-02-08T23:19:15.323Z,19.50
2023-02-08T23:21:43.631Z,18.27
2023-02-08T23:24:11.812Z,18.92
2023-02-08T23:26:40.932Z,16.50
2023-02-08T23:29:08.521Z,17.30
2023-02-08T23:31:38.993Z,15.98
2023-02-08T23:34:07.584Z,16.00
2023-02-08T23:36:34.198Z,16.98
2023-02-08T23:39:03.380Z,18.05
2023-02-08T23:41:31.317Z,18.20
2023-02-08T23:43:57.813Z,18.67
2023-02-08T23:46:26.339Z,19.13
2023-02-08T23:48:54.776Z,19.08
2023-02-08T23:51:22.930Z,18.08
2023-02-08T23:53:50.933Z,16.77
2023-02-08T23:56:27.778Z,18.67
2023-02-08T23:58:56.878Z,19.10
